Time;durP1;ratioP1;P1;durP2;ratioP2;P2;SDS_P1;SDS_P2;PMS_P1;PMS_P2;Temp;Humidity;BMP_temperature;BMP_pressure;BME280_temperature;BME280_humidity;BME280_pressure;Samples;Min_cycle;Max_cycle;Signal;HPM_P1;HPM_P2
2022/10/08 00:00:46;;;;;;;1.00;0.60;;;11.30;99.90;;;;;;5005219;28;20065;-74
2022/10/08 00:03:13;;;;;;;0.77;0.57;;;11.30;99.90;;;;;;5036190;28;20378;-74
2022/10/08 00:05:40;;;;;;;1.15;0.70;;;11.20;99.90;;;;;;5033507;28;20485;-74
2022/10/08 00:08:07;;;;;;;0.60;0.60;;;11.20;99.90;;;;;;5038303;28;20644;-74
2022/10/08 00:10:35;;;;;;;1.75;0.70;;;11.20;99.90;;;;;;5037807;28;20131;-74
2022/10/08 00:13:02;;;;;;;1.10;0.70;;;11.20;99.90;;;;;;5038117;28;20053;-74
2022/10/08 00:15:29;;;;;;;1.45;0.73;;;11.20;99.90;;;;;;5037219;28;20054;-74
2022/10/08 00:17:55;;;;;;;0.90;0.65;;;11.20;99.90;;;;;;5021305;28;20059;-73
2022/10/08 00:20:22;;;;;;;1.77;0.88;;;11.10;99.90;;;;;;5046213;28;20079;-74
2022/10/08 00:22:49;;;;;;;1.52;0.80;;;11.10;99.90;;;;;;5041964;28;20544;-73
2022/10/08 00:25:16;;;;;;;1.98;0.80;;;11.10;99.90;;;;;;5041736;28;20056;-74
2022/10/08 00:27:43;;;;;;;1.88;0.63;;;11.10;99.90;;;;;;5024995;28;20045;-74
2022/10/08 00:30:10;;;;;;;0.63;0.55;;;11.10;99.90;;;;;;5041638;28;20041;-74
2022/10/08 00:32:37;;;;;;;1.45;0.70;;;11.00;99.90;;;;;;5040528;28;20072;-74
2022/10/08 00:35:04;;;;;;;2.03;1.00;;;11.00;99.90;;;;;;5024205;28;20055;-74
2022/10/08 00:37:30;;;;;;;1.92;0.55;;;11.00;99.90;;;;;;5040451;28;20041;-74
2022/10/08 00:39:57;;;;;;;1.52;0.85;;;11.00;99.90;;;;;;5024493;28;20159;-75
2022/10/08 00:42:24;;;;;;;1.75;0.70;;;10.90;99.90;;;;;;5041966;28;20385;-74
2022/10/08 00:44:53;;;;;;;1.73;0.80;;;10.90;99.90;;;;;;5042136;28;20045;-74
2022/10/08 00:47:35;;;;;;;2.95;0.88;;;10.90;99.90;;;;;;5015271;28;20053;-74
2022/10/08 00:50:02;;;;;;;2.63;0.90;;;10.90;99.90;;;;;;5036025;28;20472;-74
2022/10/08 00:52:32;;;;;;;1.52;0.70;;;10.90;99.90;;;;;;5042173;28;20052;-74
2022/10/08 00:54:59;;;;;;;2.75;0.90;;;10.80;99.90;;;;;;5016960;28;20056;-74
2022/10/08 00:57:26;;;;;;;2.47;0.80;;;10.80;99.90;;;;;;5036897;28;20163;-74
2022/10/08 00:59:53;;;;;;;1.95;1.00;;;10.80;99.90;;;;;;5042353;28;20825;-74
2022/10/08 01:02:20;;;;;;;4.15;1.92;;;10.80;99.90;;;;;;5040009;28;20080;-74
2022/10/08 01:04:47;;;;;;;3.45;1.55;;;10.80;99.90;;;;;;5023105;28;20408;-74
2022/10/08 01:07:23;;;;;;;1.30;0.90;;;10.80;99.90;;;;;;5023891;28;20052;-74
2022/10/08 01:09:53;;;;;;;2.35;0.80;;;10.80;99.90;;;;;;5056789;28;20539;-73
2022/10/08 01:12:43;;;;;;;1.90;0.80;;;10.80;99.90;;;;;;5042015;28;20396;-74
2022/10/08 01:15:23;;;;;;;2.33;1.00;;;10.80;99.90;;;;;;5053873;28;20080;-74
2022/10/08 01:17:59;;;;;;;1.50;1.00;;;10.70;99.90;;;;;;5041133;28;20060;-74
2022/10/08 01:20:44;;;;;;;2.20;0.80;;;10.70;99.90;;;;;;5040772;28;20075;-74
2022/10/08 01:23:25;;;;;;;1.67;1.08;;;10.70;99.90;;;;;;5040522;28;20053;-74
2022/10/08 01:26:03;;;;;;;4.25;1.15;;;10.70;99.90;;;;;;5040356;28;20106;-73
2022/10/08 01:28:41;;;;;;;2.20;0.80;;;10.70;99.90;;;;;;5025227;28;20053;-74
2022/10/08 01:31:27;;;;;;;1.90;0.88;;;10.70;99.90;;;;;;5033949;28;20698;-74
2022/10/08 01:34:00;;;;;;;1.95;1.05;;;10.60;99.90;;;;;;5018526;28;20607;-74
2022/10/08 01:36:30;;;;;;;2.90;1.67;;;10.60;99.90;;;;;;5026145;28;20049;-74
2022/10/08 01:38:59;;;;;;;2.95;0.90;;;10.60;99.90;;;;;;5006932;28;20060;-75
2022/10/08 01:41:28;;;;;;;4.22;1.98;;;10.50;99.90;;;;;;5023353;28;20053;-74
2022/10/08 01:44:14;;;;;;;2.15;0.90;;;10.50;99.90;;;;;;5032671;28;20077;-74
2022/10/08 01:46:42;;;;;;;3.80;1.65;;;10.50;99.90;;;;;;5026184;28;20249;-74
2022/10/08 01:49:11;;;;;;;2.78;1.25;;;10.40;99.90;;;;;;5026161;28;20045;-74
2022/10/08 01:51:40;;;;;;;2.70;1.30;;;10.50;99.90;;;;;;5024965;28;20569;-74
2022/10/08 01:54:09;;;;;;;3.40;1.70;;;10.40;99.90;;;;;;5026295;28;20159;-74
2022/10/08 01:56:36;;;;;;;5.03;1.52;;;10.50;99.90;;;;;;5027385;28;20427;-74
2022/10/08 01:59:23;;;;;;;2.47;1.20;;;10.50;99.90;;;;;;5026353;28;20132;-74
2022/10/08 02:01:53;;;;;;;2.13;0.95;;;10.40;99.90;;;;;;5027286;28;20056;-74
2022/10/08 02:04:32;;;;;;;2.50;0.93;;;10.40;99.90;;;;;;5014117;28;20049;-74
2022/10/08 02:07:19;;;;;;;1.70;0.98;;;10.40;99.90;;;;;;5011599;28;20148;-74
2022/10/08 02:09:50;;;;;;;1.95;1.10;;;10.30;99.90;;;;;;5011672;28;20060;-74
2022/10/08 02:12:18;;;;;;;3.92;1.20;;;10.30;99.90;;;;;;5054648;28;20119;-74
2022/10/08 02:14:47;;;;;;;1.50;1.02;;;10.30;99.90;;;;;;5030008;28;20041;-74
2022/10/08 02:17:34;;;;;;;1.83;0.65;;;10.20;99.90;;;;;;5025975;28;20046;-74
2022/10/08 02:20:05;;;;;;;2.25;0.90;;;10.20;99.90;;;;;;5066089;28;20193;-73
2022/10/08 02:22:36;;;;;;;2.17;1.00;;;10.20;99.90;;;;;;5044661;28;20677;-74
2022/10/08 02:25:20;;;;;;;2.70;0.82;;;10.20;99.90;;;;;;5015045;28;20119;-74
2022/10/08 02:27:56;;;;;;;2.67;1.08;;;10.10;99.90;;;;;;5034131;28;20060;-75
2022/10/08 02:30:23;;;;;;;2.08;0.90;;;10.10;99.90;;;;;;5046574;28;20496;-74
2022/10/08 02:33:04;;;;;;;1.55;0.95;;;10.00;99.90;;;;;;5018525;28;20539;-75
2022/10/08 02:35:43;;;;;;;2.13;0.90;;;10.00;99.90;;;;;;5047666;28;20044;-74
2022/10/08 02:38:12;;;;;;;1.38;0.88;;;10.00;99.90;;;;;;5034107;28;20048;-74
2022/10/08 02:40:40;;;;;;;1.60;0.80;;;10.00;99.90;;;;;;5013085;28;20045;-75
2022/10/08 02:43:10;;;;;;;1.33;0.70;;;10.00;99.90;;;;;;5045645;28;20494;-75
2022/10/08 02:45:45;;;;;;;5.25;1.15;;;10.00;99.90;;;;;;5014838;28;20041;-75
2022/10/08 02:48:24;;;;;;;2.83;0.88;;;9.90;99.90;;;;;;5041905;28;20044;-75
2022/10/08 02:50:51;;;;;;;1.58;0.88;;;9.90;99.90;;;;;;5041119;28;20629;-75
2022/10/08 02:53:18;;;;;;;1.77;0.95;;;9.90;99.90;;;;;;5044679;28;20127;-75
2022/10/08 02:55:51;;;;;;;1.30;0.68;;;9.90;99.90;;;;;;5045462;28;20675;-75
2022/10/08 02:58:18;;;;;;;1.63;0.90;;;9.90;99.90;;;;;;5023268;28;20045;-75
2022/10/08 03:01:06;;;;;;;3.35;1.05;;;9.80;99.90;;;;;;5011212;28;20637;-75
2022/10/08 03:03:38;;;;;;;2.00;0.75;;;9.80;99.90;;;;;;5025228;28;20449;-75
2022/10/08 03:06:07;;;;;;;3.83;0.98;;;9.80;99.90;;;;;;5043734;28;20623;-74
2022/10/08 03:08:35;;;;;;;2.35;0.75;;;9.80;99.90;;;;;;5044798;28;20064;-75
2022/10/08 03:11:02;;;;;;;1.95;0.80;;;9.80;99.90;;;;;;5044427;28;20052;-75
2022/10/08 03:13:29;;;;;;;1.88;1.15;;;9.70;99.90;;;;;;5044910;28;20133;-75
2022/10/08 03:15:56;;;;;;;1.42;0.77;;;9.70;99.90;;;;;;5044550;28;20416;-73
2022/10/08 03:18:24;;;;;;;1.42;0.70;;;9.70;99.90;;;;;;5026850;28;20500;-74
2022/10/08 03:20:50;;;;;;;1.77;0.70;;;9.70;99.90;;;;;;5007752;28;20053;-73
2022/10/08 03:23:18;;;;;;;1.83;0.88;;;9.70;99.90;;;;;;5044912;28;20059;-74
2022/10/08 03:25:44;;;;;;;1.10;0.60;;;9.60;99.90;;;;;;5022533;28;20057;-74
2022/10/08 03:28:11;;;;;;;1.48;0.90;;;9.60;99.90;;;;;;5024951;28;20055;-74
2022/10/08 03:30:38;;;;;;;2.15;0.77;;;9.60;99.90;;;;;;5058750;28;20049;-74
2022/10/08 03:33:05;;;;;;;1.98;1.00;;;9.50;99.90;;;;;;5022844;28;20551;-74
2022/10/08 03:35:32;;;;;;;2.65;0.80;;;9.50;99.90;;;;;;5025466;28;20045;-74
2022/10/08 03:37:59;;;;;;;1.50;0.80;;;9.50;99.90;;;;;;5042848;28;20059;-74
2022/10/08 03:40:26;;;;;;;2.17;1.00;;;9.40;99.90;;;;;;5043323;28;20053;-74
2022/10/08 03:42:52;;;;;;;2.00;0.70;;;9.50;99.90;;;;;;5026886;28;20051;-74
2022/10/08 03:45:19;;;;;;;1.27;0.70;;;9.40;99.90;;;;;;5025306;28;20144;-74
2022/10/08 03:47:50;;;;;;;2.45;0.73;;;9.40;99.90;;;;;;5026490;28;20045;-74
2022/10/08 03:50:18;;;;;;;1.13;0.70;;;9.40;99.90;;;;;;5027112;28;20439;-74
2022/10/08 03:52:44;;;;;;;3.00;0.98;;;9.40;99.90;;;;;;5045917;28;20056;-74
2022/10/08 03:55:12;;;;;;;1.33;0.60;;;9.40;99.90;;;;;;5045023;28;20060;-74
2022/10/08 03:57:38;;;;;;;0.77;0.60;;;9.30;99.90;;;;;;5043323;28;20475;-74
2022/10/08 04:00:06;;;;;;;1.85;0.80;;;9.30;99.90;;;;;;5043732;28;20056;-75
2022/10/08 04:02:32;;;;;;;1.23;0.90;;;9.30;99.90;;;;;;5022232;28;20050;-74
2022/10/08 04:04:59;;;;;;;1.27;0.70;;;9.20;99.90;;;;;;5043348;28;20051;-74
2022/10/08 04:07:26;;;;;;;1.08;0.70;;;9.20;99.90;;;;;;5023109;28;20095;-74
2022/10/08 04:09:53;;;;;;;2.42;0.90;;;9.20;99.90;;;;;;5043118;28;20041;-74
2022/10/08 04:12:19;;;;;;;0.75;0.57;;;9.20;99.90;;;;;;5044734;28;20057;-74
2022/10/08 04:14:46;;;;;;;0.77;0.60;;;9.20;99.90;;;;;;5039737;28;20140;-74
2022/10/08 04:17:13;;;;;;;1.10;0.55;;;9.20;99.90;;;;;;5042896;28;20476;-74
2022/10/08 04:19:40;;;;;;;1.92;0.60;;;9.20;99.90;;;;;;5043866;28;20045;-74
2022/10/08 04:22:06;;;;;;;1.00;0.57;;;9.10;99.90;;;;;;5040422;28;20132;-74
2022/10/08 04:24:33;;;;;;;0.50;0.47;;;9.10;99.90;;;;;;5009927;28;20052;-74
2022/10/08 04:27:00;;;;;;;0.73;0.55;;;9.10;99.90;;;;;;5042874;28;20049;-74
2022/10/08 04:29:27;;;;;;;0.63;0.60;;;9.10;99.90;;;;;;5039982;28;20056;-74
2022/10/08 04:31:53;;;;;;;1.48;0.75;;;9.00;99.90;;;;;;5043845;28;20156;-74
2022/10/08 04:34:20;;;;;;;0.98;0.60;;;9.00;99.90;;;;;;5021666;28;20067;-74
2022/10/08 04:36:47;;;;;;;1.38;0.80;;;9.00;99.90;;;;;;5009160;28;20040;-74
2022/10/08 04:39:14;;;;;;;0.80;0.60;;;9.00;99.90;;;;;;5039730;28;20151;-74
2022/10/08 04:41:40;;;;;;;2.05;0.70;;;9.00;99.90;;;;;;5042723;28;20063;-74
2022/10/08 04:44:07;;;;;;;1.65;0.65;;;8.90;99.90;;;;;;5026340;28;20076;-74
2022/10/08 04:46:34;;;;;;;1.23;0.60;;;9.00;99.90;;;;;;5043986;28;20337;-73
2022/10/08 04:49:01;;;;;;;1.92;1.00;;;9.00;99.90;;;;;;5025727;28;20120;-73
2022/10/08 04:51:27;;;;;;;1.13;0.77;;;8.90;99.90;;;;;;5007951;28;20055;-73
2022/10/08 04:53:54;;;;;;;0.80;0.60;;;8.90;99.90;;;;;;5009461;28;20049;-73
2022/10/08 04:56:26;;;;;;;1.42;0.70;;;8.90;99.90;;;;;;5027289;28;20463;-73
2022/10/08 04:58:54;;;;;;;0.95;0.52;;;8.90;99.90;;;;;;5043591;28;20049;-73
2022/10/08 05:01:21;;;;;;;2.83;0.98;;;8.90;99.90;;;;;;5041891;28;20132;-73
2022/10/08 05:03:49;;;;;;;0.70;0.50;;;8.90;99.90;;;;;;5037316;28;20127;-74
2022/10/08 05:06:18;;;;;;;0.80;0.80;;;8.90;99.90;;;;;;5040882;28;20049;-73
2022/10/08 05:08:45;;;;;;;1.70;0.80;;;8.90;99.90;;;;;;5039862;28;20040;-74
2022/10/08 05:11:12;;;;;;;1.85;0.80;;;8.90;99.90;;;;;;5020025;28;20072;-73
2022/10/08 05:13:39;;;;;;;0.77;0.68;;;8.90;99.90;;;;;;5021999;28;20558;-74
2022/10/08 05:16:10;;;;;;;3.03;1.20;;;8.80;99.90;;;;;;5039207;28;20057;-74
2022/10/08 05:18:38;;;;;;;1.05;0.73;;;8.80;99.90;;;;;;5039272;28;20137;-73
2022/10/08 05:21:05;;;;;;;2.53;0.70;;;8.80;99.90;;;;;;5009744;28;20052;-74
2022/10/08 05:23:33;;;;;;;1.42;0.70;;;8.80;99.90;;;;;;5022548;28;20139;-74
2022/10/08 05:26:01;;;;;;;1.15;0.50;;;8.80;99.90;;;;;;5037018;28;20045;-73
2022/10/08 05:28:28;;;;;;;0.43;0.40;;;8.80;99.90;;;;;;5044161;28;20056;-73
2022/10/08 05:30:59;;;;;;;2.25;0.50;;;8.80;99.90;;;;;;5038511;28;20055;-73
2022/10/08 05:33:26;;;;;;;0.93;0.60;;;8.80;99.90;;;;;;5055289;28;20080;-73
2022/10/08 05:35:52;;;;;;;0.65;0.50;;;8.70;99.90;;;;;;5043642;28;20061;-74
2022/10/08 05:38:19;;;;;;;0.40;0.40;;;8.70;99.90;;;;;;5041967;28;20064;-73
2022/10/08 05:40:46;;;;;;;0.70;0.50;;;8.70;99.90;;;;;;5044063;28;20076;-74
2022/10/08 05:43:12;;;;;;;1.45;0.80;;;8.60;99.90;;;;;;5047361;28;20056;-74
2022/10/08 05:45:39;;;;;;;0.82;0.52;;;8.60;99.90;;;;;;5061452;28;20049;-73
2022/10/08 05:48:06;;;;;;;0.30;0.30;;;8.60;99.90;;;;;;5050527;28;20838;-73
2022/10/08 05:50:35;;;;;;;1.00;0.60;;;8.60;99.90;;;;;;5057517;28;20060;-73
2022/10/08 05:53:02;;;;;;;1.08;0.50;;;8.60;99.90;;;;;;5052329;28;20053;-73
2022/10/08 05:55:34;;;;;;;0.43;0.40;;;8.60;99.90;;;;;;5044463;28;20056;-73
2022/10/08 05:58:01;;;;;;;1.52;0.60;;;8.60;99.90;;;;;;5047705;28;20045;-73
2022/10/08 06:00:28;;;;;;;0.90;0.60;;;8.50;99.90;;;;;;5048922;28;20499;-73
2022/10/08 06:02:54;;;;;;;1.08;0.55;;;8.40;99.90;;;;;;5054404;28;20110;-74
2022/10/08 06:05:21;;;;;;;1.08;0.60;;;8.40;99.90;;;;;;5033343;28;20057;-74
2022/10/08 06:07:48;;;;;;;0.55;0.50;;;8.40;99.90;;;;;;5055438;28;20049;-73
2022/10/08 06:10:15;;;;;;;0.38;0.38;;;8.30;99.90;;;;;;5049167;28;20044;-73
2022/10/08 06:12:41;;;;;;;0.40;0.40;;;8.30;99.90;;;;;;5047849;28;20622;-73
2022/10/08 06:15:08;;;;;;;0.65;0.50;;;8.30;99.90;;;;;;5047544;28;20510;-73
2022/10/08 06:17:35;;;;;;;0.95;0.45;;;8.30;99.90;;;;;;5044970;28;20045;-73
2022/10/08 06:20:02;;;;;;;2.28;0.90;;;8.30;99.90;;;;;;5027901;28;20052;-74
2022/10/08 06:22:28;;;;;;;0.32;0.32;;;8.30;99.90;;;;;;5046757;28;20055;-76
2022/10/08 06:24:55;;;;;;;1.00;0.68;;;8.30;99.90;;;;;;5045424;28;20051;-74
2022/10/08 06:27:22;;;;;;;0.77;0.50;;;8.20;99.90;;;;;;5055239;28;20052;-74
2022/10/08 06:29:49;;;;;;;0.70;0.55;;;8.20;99.90;;;;;;5044298;28;20048;-74
2022/10/08 06:32:16;;;;;;;1.02;0.65;;;8.20;99.90;;;;;;5048278;28;20045;-74
2022/10/08 06:34:43;;;;;;;0.30;0.30;;;8.20;99.90;;;;;;5037499;28;20401;-74
2022/10/08 06:37:10;;;;;;;0.40;0.40;;;8.30;99.90;;;;;;5044145;28;20395;-74
2022/10/08 06:39:37;;;;;;;0.50;0.50;;;8.30;99.90;;;;;;5046312;28;20447;-74
2022/10/08 06:42:04;;;;;;;0.38;0.32;;;8.30;99.90;;;;;;5053211;28;20652;-73
2022/10/08 06:44:30;;;;;;;0.88;0.57;;;8.30;99.90;;;;;;5055934;28;20060;-74
2022/10/08 06:46:57;;;;;;;0.50;0.50;;;8.30;99.90;;;;;;5045647;28;20064;-73
2022/10/08 06:49:25;;;;;;;0.50;0.40;;;8.30;99.90;;;;;;5061092;28;20052;-74
2022/10/08 06:51:52;;;;;;;0.65;0.50;;;8.20;99.90;;;;;;5045386;28;20120;-75
2022/10/08 06:54:18;;;;;;;0.85;0.43;;;8.30;99.90;;;;;;5044224;28;20055;-74
2022/10/08 06:56:45;;;;;;;0.73;0.68;;;8.20;99.90;;;;;;5045565;28;20055;-74
2022/10/08 06:59:12;;;;;;;0.55;0.55;;;8.30;99.90;;;;;;5047116;28;20045;-74
2022/10/08 07:01:39;;;;;;;0.82;0.52;;;8.30;99.90;;;;;;5048151;28;20100;-74
2022/10/08 07:04:06;;;;;;;0.40;0.40;;;8.30;99.90;;;;;;5037835;28;20060;-73
2022/10/08 07:06:33;;;;;;;1.17;0.57;;;8.30;99.90;;;;;;5043091;28;20615;-74
2022/10/08 07:09:00;;;;;;;1.30;0.60;;;8.40;99.90;;;;;;5040726;28;20128;-74
2022/10/08 07:11:27;;;;;;;0.80;0.50;;;8.40;99.90;;;;;;5048751;28;20059;-75
2022/10/08 07:13:54;;;;;;;2.35;0.60;;;8.50;99.90;;;;;;5028478;28;20144;-75
2022/10/08 07:16:22;;;;;;;0.50;0.50;;;8.60;99.90;;;;;;5047849;28;20056;-74
2022/10/08 07:18:50;;;;;;;1.40;0.55;;;8.60;99.90;;;;;;5054140;28;20044;-74
2022/10/08 07:21:18;;;;;;;1.33;0.52;;;8.70;99.90;;;;;;5049150;28;20063;-74
2022/10/08 07:23:45;;;;;;;0.95;0.55;;;8.80;99.90;;;;;;5046610;28;20128;-74
2022/10/08 07:26:16;;;;;;;2.40;0.98;;;8.80;99.90;;;;;;5039743;28;20041;-74
2022/10/08 07:28:48;;;;;;;1.33;0.47;;;8.90;99.90;;;;;;5036205;28;20045;-73
2022/10/08 07:31:19;;;;;;;1.58;0.57;;;8.90;99.90;;;;;;5045650;28;20461;-73
2022/10/08 07:33:46;;;;;;;1.65;0.55;;;9.00;99.90;;;;;;5046379;28;20106;-73
2022/10/08 07:36:16;;;;;;;1.88;0.73;;;9.00;99.90;;;;;;5045569;28;20049;-73
2022/10/08 07:38:43;;;;;;;1.58;0.60;;;9.10;99.90;;;;;;5043973;28;20562;-74
2022/10/08 07:41:10;;;;;;;1.38;0.60;;;9.10;99.90;;;;;;5044550;28;20041;-73
2022/10/08 07:43:40;;;;;;;0.90;0.70;;;9.20;99.90;;;;;;5044884;28;20470;-73
2022/10/08 07:46:07;;;;;;;1.08;0.60;;;9.20;99.90;;;;;;5042749;28;20154;-73
2022/10/08 07:48:35;;;;;;;1.90;0.60;;;9.30;99.90;;;;;;5034321;28;20136;-73
2022/10/08 07:51:06;;;;;;;2.03;0.85;;;9.30;99.90;;;;;;5041324;28;20059;-73
2022/10/08 07:53:34;;;;;;;2.65;1.02;;;9.40;99.90;;;;;;5029393;28;20049;-73
2022/10/08 07:56:00;;;;;;;1.38;0.73;;;9.40;99.90;;;;;;5040477;28;20052;-73
2022/10/08 07:58:27;;;;;;;2.65;1.20;;;9.50;99.90;;;;;;5040685;28;20349;-73
2022/10/08 08:00:58;;;;;;;1.33;0.90;;;9.60;99.90;;;;;;5046019;28;20209;-73
2022/10/08 08:03:25;;;;;;;1.60;0.65;;;9.60;99.90;;;;;;5036122;28;20057;-73
2022/10/08 08:05:52;;;;;;;2.03;0.73;;;9.70;99.90;;;;;;5037737;28;20045;-72
2022/10/08 08:08:23;;;;;;;1.67;0.80;;;9.70;99.90;;;;;;5023683;28;20045;-73
2022/10/08 08:11:00;;;;;;;1.42;0.82;;;9.80;99.90;;;;;;5038917;28;20830;-72
2022/10/08 08:13:28;;;;;;;1.15;0.70;;;9.90;99.90;;;;;;5043768;28;20060;-73
2022/10/08 08:16:25;;;;;;;1.38;0.82;;;9.90;99.90;;;;;;5045009;28;20049;-73
2022/10/08 08:18:53;;;;;;;1.88;0.80;;;10.00;99.90;;;;;;5018839;28;20053;-73
2022/10/08 08:21:22;;;;;;;1.95;0.80;;;10.10;99.90;;;;;;5049466;28;20096;-73
2022/10/08 08:23:50;;;;;;;1.60;0.70;;;10.10;99.90;;;;;;5018434;28;20053;-73
2022/10/08 08:26:24;;;;;;;1.35;0.60;;;10.10;99.90;;;;;;5039414;28;20096;-73
2022/10/08 08:28:52;;;;;;;0.60;0.45;;;10.10;99.90;;;;;;5054307;28;20431;-73
2022/10/08 08:31:21;;;;;;;1.55;0.60;;;10.30;99.90;;;;;;5039018;28;20087;-72
2022/10/08 08:33:55;;;;;;;1.00;0.50;;;10.30;99.90;;;;;;5039363;28;20556;-73
2022/10/08 08:36:26;;;;;;;1.70;0.80;;;10.30;99.90;;;;;;5039951;28;20040;-72
2022/10/08 08:38:53;;;;;;;2.30;1.00;;;10.40;99.90;;;;;;5035621;28;20048;-73
2022/10/08 08:41:45;;;;;;;4.93;1.35;;;10.50;99.90;;;;;;5037139;28;20045;-73
2022/10/08 08:44:39;;;;;;;4.15;1.38;;;10.60;99.90;;;;;;5033503;28;20817;-73
2022/10/08 08:47:21;;;;;;;2.45;1.10;;;10.70;99.90;;;;;;5032513;28;20152;-72
2022/10/08 08:49:51;;;;;;;3.95;1.50;;;10.70;99.90;;;;;;5034814;28;20056;-71
2022/10/08 08:52:22;;;;;;;1.70;0.95;;;10.80;99.90;;;;;;5043447;28;20053;-71
2022/10/08 08:54:49;;;;;;;2.55;1.00;;;10.90;99.90;;;;;;5031907;28;20136;-71
2022/10/08 08:57:36;;;;;;;2.17;1.13;;;10.90;99.90;;;;;;5019602;28;20102;-71
2022/10/08 09:00:10;;;;;;;4.15;1.67;;;10.90;99.90;;;;;;5032125;28;20057;-73
2022/10/08 09:03:08;;;;;;;2.40;0.88;;;11.00;99.90;;;;;;5037040;28;20064;-71
2022/10/08 09:05:38;;;;;;;3.47;1.17;;;11.10;99.90;;;;;;5035551;28;20079;-71
2022/10/08 09:08:33;;;;;;;1.77;0.85;;;11.10;99.90;;;;;;5004891;28;20051;-71
2022/10/08 09:11:01;;;;;;;2.67;1.00;;;11.20;99.90;;;;;;5052191;28;20072;-72
2022/10/08 09:13:35;;;;;;;4.05;1.30;;;11.30;99.90;;;;;;5040059;28;20805;-71
2022/10/08 09:16:02;;;;;;;1.75;0.88;;;11.20;99.90;;;;;;5037277;28;20139;-73
2022/10/08 09:18:29;;;;;;;2.75;1.00;;;11.30;99.90;;;;;;5035924;28;20068;-72
2022/10/08 09:20:56;;;;;;;2.75;0.90;;;11.30;99.90;;;;;;5040508;28;20083;-72
2022/10/08 09:23:23;;;;;;;2.53;1.08;;;11.40;99.90;;;;;;5037373;28;21237;-72
2022/10/08 09:25:59;;;;;;;3.40;0.93;;;11.50;99.90;;;;;;5025344;28;20049;-72
2022/10/08 09:28:39;;;;;;;2.13;0.85;;;11.50;99.90;;;;;;5020379;28;20054;-71
2022/10/08 09:31:10;;;;;;;2.22;1.20;;;11.60;99.90;;;;;;5039236;28;20076;-72
2022/10/08 09:33:38;;;;;;;2.95;1.40;;;11.60;99.90;;;;;;5036143;28;20480;-71
2022/10/08 09:36:05;;;;;;;2.25;0.90;;;11.70;99.90;;;;;;5015710;28;20421;-72
2022/10/08 09:38:36;;;;;;;3.85;1.10;;;11.70;99.90;;;;;;5034938;28;20057;-71
2022/10/08 09:41:16;;;;;;;3.03;1.27;;;11.80;99.90;;;;;;5036801;28;20049;-72
2022/10/08 09:43:44;;;;;;;2.13;1.20;;;11.90;99.90;;;;;;5037963;28;20053;-72
2022/10/08 09:46:28;;;;;;;2.65;0.73;;;12.00;99.90;;;;;;5026459;28;20072;-72
2022/10/08 09:48:56;;;;;;;4.72;1.20;;;12.10;99.90;;;;;;5044140;28;20126;-72
2022/10/08 09:51:23;;;;;;;3.20;1.25;;;12.10;99.90;;;;;;5040764;28;20056;-72
2022/10/08 09:53:57;;;;;;;2.63;0.90;;;12.20;99.90;;;;;;5020782;28;20063;-72
2022/10/08 09:56:26;;;;;;;2.50;1.10;;;12.30;99.90;;;;;;5051105;28;20132;-72
2022/10/08 09:58:58;;;;;;;2.60;1.20;;;12.40;99.90;;;;;;5038606;28;20393;-72
2022/10/08 10:01:25;;;;;;;2.20;1.10;;;12.50;99.90;;;;;;5038654;28;20053;-72
2022/10/08 10:03:54;;;;;;;3.60;1.15;;;12.60;99.90;;;;;;5024478;28;20068;-71
2022/10/08 10:06:27;;;;;;;1.90;1.10;;;12.60;99.90;;;;;;5017672;28;20053;-72
2022/10/08 10:09:01;;;;;;;2.70;1.33;;;12.70;99.90;;;;;;5033570;28;20053;-73
2022/10/08 10:11:32;;;;;;;1.60;1.05;;;12.80;99.90;;;;;;5036676;28;20067;-72
2022/10/08 10:14:03;;;;;;;2.15;1.20;;;12.80;99.90;;;;;;5042719;28;20106;-72
2022/10/08 10:16:34;;;;;;;2.85;1.10;;;12.80;99.90;;;;;;5032640;28;20075;-72
2022/10/08 10:19:08;;;;;;;2.25;0.90;;;12.90;99.90;;;;;;5045466;28;20080;-72
2022/10/08 10:21:58;;;;;;;1.95;0.95;;;12.90;99.90;;;;;;5025713;28;20045;-72
2022/10/08 10:24:48;;;;;;;3.30;1.23;;;13.00;99.90;;;;;;5052444;28;20129;-72
2022/10/08 10:27:25;;;;;;;1.85;1.00;;;13.10;99.90;;;;;;5040313;28;20051;-73
2022/10/08 10:30:03;;;;;;;2.67;1.00;;;13.10;99.90;;;;;;5040473;28;20055;-71
2022/10/08 10:32:49;;;;;;;3.65;1.08;;;13.10;99.90;;;;;;5042748;28;20051;-71
2022/10/08 10:35:21;;;;;;;2.33;1.02;;;13.30;99.90;;;;;;5029517;28;20139;-72
2022/10/08 10:37:56;;;;;;;1.40;0.95;;;13.30;99.90;;;;;;5046124;28;20049;-71
2022/10/08 10:40:46;;;;;;;3.65;1.13;;;13.40;99.90;;;;;;5056516;28;20049;-75
2022/10/08 10:43:16;;;;;;;1.52;0.80;;;13.40;99.90;;;;;;5026825;28;20049;-77
2022/10/08 10:45:46;;;;;;;1.25;0.60;;;13.50;99.90;;;;;;5041059;28;20049;-75
2022/10/08 10:48:13;;;;;;;2.50;0.85;;;13.60;99.90;;;;;;5020926;28;20049;-75
2022/10/08 10:51:03;;;;;;;1.33;0.60;;;13.70;99.90;;;;;;5036903;28;20055;-76
2022/10/08 10:53:38;;;;;;;1.10;0.80;;;13.70;99.90;;;;;;5033074;28;20055;-76
2022/10/08 10:56:13;;;;;;;3.15;1.10;;;13.80;99.90;;;;;;5041140;28;20076;-77
2022/10/08 10:59:17;;;;;;;3.25;1.20;;;13.90;99.90;;;;;;5056161;28;20045;-76
2022/10/08 11:02:06;;;;;;;;;;;13.90;99.90;;;;;;5055721;28;20088;-76
2022/10/08 11:04:41;;;;;;;2.88;0.93;;;13.90;99.90;;;;;;5020768;28;20319;-76
2022/10/08 11:07:42;;;;;;;2.25;1.30;;;14.00;99.90;;;;;;5037781;28;20399;-76
2022/10/08 11:10:56;;;;;;;2.13;0.90;;;14.20;99.90;;;;;;5034343;28;20060;-76
2022/10/08 11:13:57;;;;;;;1.98;0.95;;;14.30;99.90;;;;;;5008707;28;20525;-77
2022/10/08 11:16:45;;;;;;;1.27;0.70;;;14.40;99.90;;;;;;5020155;28;20538;-76
2022/10/08 11:19:36;;;;;;;2.30;1.10;;;14.60;99.90;;;;;;5038119;28;20608;-76
2022/10/08 11:22:11;;;;;;;1.83;1.10;;;14.90;99.90;;;;;;5020840;28;20045;-77
2022/10/08 11:25:08;;;;;;;2.47;0.90;;;15.00;99.90;;;;;;5019906;28;20057;-77
2022/10/08 11:28:05;;;;;;;1.42;0.90;;;15.10;99.90;;;;;;5042344;28;20057;-77
2022/10/08 11:30:45;;;;;;;3.00;1.17;;;15.10;99.90;;;;;;4966979;28;20425;-75
2022/10/08 11:33:12;;;;;;;1.77;0.90;;;15.30;99.90;;;;;;5039487;28;20162;-77
2022/10/08 11:36:00;;;;;;;1.42;0.70;;;15.40;99.90;;;;;;5035571;28;20061;-76
2022/10/08 11:38:35;;;;;;;1.30;0.80;;;15.70;99.90;;;;;;5018516;28;20049;-77
2022/10/08 11:41:14;;;;;;;1.98;0.75;;;16.10;99.90;;;;;;5038812;28;20133;-78
2022/10/08 11:43:57;;;;;;;2.30;1.02;;;16.30;99.90;;;;;;5021580;28;20609;-77
2022/10/08 11:46:31;;;;;;;1.67;0.95;;;16.40;99.90;;;;;;5022200;28;20063;-77
2022/10/08 11:49:10;;;;;;;1.15;0.80;;;16.30;99.90;;;;;;5052501;28;20124;-77
2022/10/08 11:51:44;;;;;;;1.02;0.73;;;16.20;99.90;;;;;;5058989;28;20064;-77
2022/10/08 11:54:33;;;;;;;2.45;0.82;;;16.40;99.90;;;;;;5021078;28;20049;-77
2022/10/08 11:57:23;;;;;;;3.65;1.63;;;16.70;99.90;;;;;;5036482;28;20040;-77
2022/10/08 12:00:37;;;;;;;2.92;1.45;;;16.90;99.90;;;;;;5039808;28;20195;-77
2022/10/08 12:03:18;;;;;;;2.30;1.02;;;17.10;99.90;;;;;;4996545;28;20058;-78
2022/10/08 12:05:49;;;;;;;1.17;0.63;;;17.40;99.90;;;;;;5014541;28;20051;-76
2022/10/08 12:08:55;;;;;;;2.47;1.23;;;17.20;99.90;;;;;;5022148;28;20045;-77
2022/10/08 12:11:30;;;;;;;3.40;1.13;;;17.10;99.90;;;;;;5022082;28;20460;-77
2022/10/08 12:14:18;;;;;;;1.80;0.80;;;17.40;99.90;;;;;;5041320;28;20172;-79
2022/10/08 12:16:54;;;;;;;1.85;1.00;;;17.60;99.90;;;;;;5036229;28;20062;-77
2022/10/08 12:19:33;;;;;;;2.28;1.08;;;17.90;99.90;;;;;;5038217;28;20044;-77
2022/10/08 12:22:15;;;;;;;1.48;0.75;;;18.20;99.90;;;;;;5038370;28;20084;-76
2022/10/08 12:24:48;;;;;;;2.90;0.90;;;18.40;98.50;;;;;;5037021;28;20657;-77
2022/10/08 12:27:16;;;;;;;1.80;0.90;;;18.60;98.80;;;;;;5038790;28;20053;-77
2022/10/08 12:29:55;;;;;;;2.97;1.05;;;18.80;98.60;;;;;;5038957;28;20049;-77
2022/10/08 12:32:23;;;;;;;2.97;1.00;;;19.00;98.10;;;;;;5037918;28;20079;-77
2022/10/08 12:34:51;;;;;;;2.38;1.10;;;19.30;97.90;;;;;;5006135;28;20036;-77
2022/10/08 12:37:44;;;;;;;1.38;0.73;;;19.50;96.70;;;;;;5023990;28;20049;-78
2022/10/08 12:40:37;;;;;;;0.90;0.70;;;19.60;96.10;;;;;;5052912;28;20516;-76
2022/10/08 12:43:30;;;;;;;2.20;0.93;;;19.90;96.10;;;;;;5038475;28;20053;-76
2022/10/08 12:46:18;;;;;;;2.70;1.05;;;20.00;94.00;;;;;;5034291;28;20048;-77
2022/10/08 12:48:56;;;;;;;3.50;1.13;;;19.80;94.80;;;;;;5038004;28;20063;-77
2022/10/08 12:51:47;;;;;;;2.08;1.05;;;19.90;94.20;;;;;;5038737;28;20497;-76
2022/10/08 12:54:23;;;;;;;1.95;1.00;;;19.90;93.80;;;;;;5049814;28;20052;-77
2022/10/08 12:56:50;;;;;;;2.55;0.88;;;20.00;93.20;;;;;;5022177;28;20048;-77
2022/10/08 12:59:21;;;;;;;1.50;0.80;;;20.10;92.60;;;;;;5013129;28;20171;-77
2022/10/08 13:01:50;;;;;;;2.00;0.80;;;20.30;92.50;;;;;;5039675;28;20052;-77
2022/10/08 13:04:19;;;;;;;1.00;0.70;;;20.60;91.90;;;;;;5039142;28;20436;-86
2022/10/08 13:06:46;;;;;;;1.67;0.88;;;20.80;90.90;;;;;;5021991;28;20048;-79
2022/10/08 13:09:25;;;;;;;1.23;0.80;;;20.70;89.70;;;;;;5060489;28;20096;-78
2022/10/08 13:11:53;;;;;;;1.25;0.88;;;20.70;91.00;;;;;;5038321;28;20084;-77
2022/10/08 13:14:32;;;;;;;2.13;0.90;;;20.80;91.10;;;;;;5025550;28;20045;-76
2022/10/08 13:16:59;;;;;;;2.20;0.90;;;20.80;90.90;;;;;;5012084;28;20045;-78